Big Piney, Wyoming
Current Conditions -  °F | °C
As of 2:53 PM on Thursday 23 Oct 2014 (Local Time) from KBPI Reporting Station
Clear Clear  
Wind Chill: 60°   Ceiling: Unl
Heat Index: 60°   Visibility: 10mi
Dew Point: 24°   Wind: 5mph
Humidity: 25%   Direction: 320°NW
Pressure: 30.16"   Gusts: NA
Location:  42.54°N, 110.11°W
Report Text: KBPI 232053Z AUTO 32004KT 10SM CLR 16/M04 A3016 RMK AO2 SLP175 T01561044 56017
Loading
Personal Weather Stations






























Interactive Weather Map
Tropical Storm Tracking
New forecast layout! Learn more

10-Day Weather Forecast

Advertisements
Track Severe Weather on mobile